Capitol Logistics 369




PHNL
Daniel K Inouye International Airport
Honolulu, Hawaii
KRIV
March Air Reserve Base
Riverside, California

Activity Log

Date Flight Route Aircraft Duration
02/06/2019 CPX369 MKK4 FITES R578 FICKY ROSIN MALIT OCN B763 5h 07m

Route Details

Aircraft Information
Primary: Boeing 767-300BDSF
Backup: Boeing 757-200SF
Route Data
Distance: 2277nm
Duration: 5h 00m
Recm'd Route: MKK4 FITES R578 FICKY ROSIN MALIT OCN
Origin Wx: PHNL 180153Z 05017G21KT 10SM FEW024 FEW038 SCT060 27/15 A2999 RMK AO2 SLP156 T02720150
Dest. Wx: KRIV 180158Z AUTO 31006KT 10SM CLR 21/09 A2991 RMK AO2 SLP122 T02070090
Notes: